sensor_id;sensor_type;location;lat;lon;timestamp;P1;durP1;ratioP1;P2;durP2;ratioP2
26963;SDS011;14521;48.148;-1.656;2023-06-24T00:01:00;1.65;;;1.55;;
26963;SDS011;14521;48.148;-1.656;2023-06-24T00:04:22;2.08;;;1.90;;
26963;SDS011;14521;48.148;-1.656;2023-06-24T00:07:45;1.80;;;1.70;;
26963;SDS011;14521;48.148;-1.656;2023-06-24T00:11:07;2.78;;;1.60;;
26963;SDS011;14521;48.148;-1.656;2023-06-24T00:14:29;2.47;;;1.80;;
26963;SDS011;14521;48.148;-1.656;2023-06-24T00:17:52;2.35;;;1.80;;
26963;SDS011;14521;48.148;-1.656;2023-06-24T00:21:14;1.48;;;1.38;;
26963;SDS011;14521;48.148;-1.656;2023-06-24T00:24:38;3.58;;;1.65;;
26963;SDS011;14521;48.148;-1.656;2023-06-24T00:28:01;2.40;;;1.70;;
26963;SDS011;14521;48.148;-1.656;2023-06-24T00:31:25;6.03;;;1.52;;
26963;SDS011;14521;48.148;-1.656;2023-06-24T00:34:47;1.80;;;1.67;;
26963;SDS011;14521;48.148;-1.656;2023-06-24T00:38:12;3.38;;;2.08;;
26963;SDS011;14521;48.148;-1.656;2023-06-24T00:41:34;2.03;;;1.83;;
26963;SDS011;14521;48.148;-1.656;2023-06-24T00:44:57;1.80;;;1.70;;
26963;SDS011;14521;48.148;-1.656;2023-06-24T00:48:19;2.28;;;1.70;;
26963;SDS011;14521;48.148;-1.656;2023-06-24T00:51:43;3.50;;;1.73;;
26963;SDS011;14521;48.148;-1.656;2023-06-24T00:55:12;1.77;;;1.60;;
26963;SDS011;14521;48.148;-1.656;2023-06-24T00:58:37;2.05;;;1.65;;
26963;SDS011;14521;48.148;-1.656;2023-06-24T01:02:00;2.35;;;1.88;;
26963;SDS011;14521;48.148;-1.656;2023-06-24T01:05:24;2.13;;;1.60;;
26963;SDS011;14521;48.148;-1.656;2023-06-24T01:08:47;2.55;;;1.95;;
26963;SDS011;14521;48.148;-1.656;2023-06-24T01:12:12;2.17;;;1.83;;
26963;SDS011;14521;48.148;-1.656;2023-06-24T01:15:35;3.45;;;1.88;;
26963;SDS011;14521;48.148;-1.656;2023-06-24T01:19:01;1.90;;;1.80;;
26963;SDS011;14521;48.148;-1.656;2023-06-24T01:26:31;2.17;;;1.98;;
26963;SDS011;14521;48.148;-1.656;2023-06-24T01:33:48;2.72;;;1.80;;
26963;SDS011;14521;48.148;-1.656;2023-06-24T01:37:25;2.53;;;2.10;;
26963;SDS011;14521;48.148;-1.656;2023-06-24T01:40:53;2.53;;;2.33;;
26963;SDS011;14521;48.148;-1.656;2023-06-24T01:44:16;2.08;;;1.73;;
26963;SDS011;14521;48.148;-1.656;2023-06-24T01:47:40;1.70;;;1.58;;
26963;SDS011;14521;48.148;-1.656;2023-06-24T01:51:13;3.55;;;2.20;;
26963;SDS011;14521;48.148;-1.656;2023-06-24T01:54:40;2.40;;;2.20;;
26963;SDS011;14521;48.148;-1.656;2023-06-24T01:58:04;2.50;;;2.30;;
26963;SDS011;14521;48.148;-1.656;2023-06-24T02:01:28;6.05;;;2.15;;
26963;SDS011;14521;48.148;-1.656;2023-06-24T02:04:53;2.28;;;1.83;;
26963;SDS011;14521;48.148;-1.656;2023-06-24T02:08:18;1.90;;;1.80;;
26963;SDS011;14521;48.148;-1.656;2023-06-24T02:11:43;2.30;;;1.90;;
26963;SDS011;14521;48.148;-1.656;2023-06-24T02:15:06;2.17;;;2.00;;
26963;SDS011;14521;48.148;-1.656;2023-06-24T02:18:30;4.20;;;2.30;;
26963;SDS011;14521;48.148;-1.656;2023-06-24T02:21:53;2.15;;;1.95;;
26963;SDS011;14521;48.148;-1.656;2023-06-24T02:25:18;2.67;;;2.47;;
26963;SDS011;14521;48.148;-1.656;2023-06-24T02:28:40;2.15;;;2.00;;
26963;SDS011;14521;48.148;-1.656;2023-06-24T02:32:05;12.80;;;2.15;;
26963;SDS011;14521;48.148;-1.656;2023-06-24T02:35:28;2.40;;;2.15;;
26963;SDS011;14521;48.148;-1.656;2023-06-24T02:38:50;2.42;;;2.22;;
26963;SDS011;14521;48.148;-1.656;2023-06-24T02:42:12;4.38;;;2.45;;
26963;SDS011;14521;48.148;-1.656;2023-06-24T02:45:35;2.85;;;2.05;;
26963;SDS011;14521;48.148;-1.656;2023-06-24T02:48:57;2.72;;;2.53;;
26963;SDS011;14521;48.148;-1.656;2023-06-24T02:52:20;3.22;;;1.90;;
26963;SDS011;14521;48.148;-1.656;2023-06-24T02:55:43;2.20;;;2.10;;
26963;SDS011;14521;48.148;-1.656;2023-06-24T02:59:07;3.72;;;1.92;;
26963;SDS011;14521;48.148;-1.656;2023-06-24T03:02:29;2.40;;;2.20;;
26963;SDS011;14521;48.148;-1.656;2023-06-24T03:05:53;2.83;;;2.38;;
26963;SDS011;14521;48.148;-1.656;2023-06-24T03:09:17;2.50;;;2.22;;
26963;SDS011;14521;48.148;-1.656;2023-06-24T03:12:41;2.95;;;2.67;;
26963;SDS011;14521;48.148;-1.656;2023-06-24T03:16:03;2.35;;;2.13;;
26963;SDS011;14521;48.148;-1.656;2023-06-24T03:19:33;2.38;;;2.28;;
26963;SDS011;14521;48.148;-1.656;2023-06-24T03:22:55;3.80;;;2.15;;
26963;SDS011;14521;48.148;-1.656;2023-06-24T03:26:18;4.25;;;2.20;;
26963;SDS011;14521;48.148;-1.656;2023-06-24T03:29:40;3.75;;;2.92;;
26963;SDS011;14521;48.148;-1.656;2023-06-24T03:33:06;2.67;;;2.47;;
26963;SDS011;14521;48.148;-1.656;2023-06-24T03:36:29;3.03;;;2.30;;
26963;SDS011;14521;48.148;-1.656;2023-06-24T03:39:51;2.05;;;1.95;;
26963;SDS011;14521;48.148;-1.656;2023-06-24T03:43:15;2.65;;;2.20;;
26963;SDS011;14521;48.148;-1.656;2023-06-24T03:46:37;3.25;;;2.40;;
26963;SDS011;14521;48.148;-1.656;2023-06-24T03:50:00;2.70;;;2.50;;
26963;SDS011;14521;48.148;-1.656;2023-06-24T03:53:22;2.60;;;2.40;;
26963;SDS011;14521;48.148;-1.656;2023-06-24T03:56:45;5.97;;;2.42;;
26963;SDS011;14521;48.148;-1.656;2023-06-24T04:00:07;2.58;;;2.38;;
26963;SDS011;14521;48.148;-1.656;2023-06-24T04:03:35;2.40;;;2.30;;
26963;SDS011;14521;48.148;-1.656;2023-06-24T04:06:57;2.83;;;2.25;;
26963;SDS011;14521;48.148;-1.656;2023-06-24T04:10:19;2.45;;;2.25;;
26963;SDS011;14521;48.148;-1.656;2023-06-24T04:13:42;2.83;;;2.13;;
26963;SDS011;14521;48.148;-1.656;2023-06-24T04:17:05;2.90;;;2.70;;
26963;SDS011;14521;48.148;-1.656;2023-06-24T04:20:27;4.13;;;2.33;;
26963;SDS011;14521;48.148;-1.656;2023-06-24T04:23:49;2.80;;;2.60;;
26963;SDS011;14521;48.148;-1.656;2023-06-24T04:27:11;2.45;;;2.35;;
26963;SDS011;14521;48.148;-1.656;2023-06-24T04:30:34;2.53;;;2.30;;
26963;SDS011;14521;48.148;-1.656;2023-06-24T04:34:03;2.42;;;2.08;;
26963;SDS011;14521;48.148;-1.656;2023-06-24T04:37:27;2.20;;;2.10;;
26963;SDS011;14521;48.148;-1.656;2023-06-24T04:40:50;2.17;;;2.08;;
26963;SDS011;14521;48.148;-1.656;2023-06-24T04:44:13;2.38;;;2.17;;
26963;SDS011;14521;48.148;-1.656;2023-06-24T04:47:35;3.03;;;2.30;;
26963;SDS011;14521;48.148;-1.656;2023-06-24T04:50:58;2.60;;;2.40;;
26963;SDS011;14521;48.148;-1.656;2023-06-24T04:54:20;2.60;;;2.40;;
26963;SDS011;14521;48.148;-1.656;2023-06-24T04:57:42;3.88;;;2.22;;
26963;SDS011;14521;48.148;-1.656;2023-06-24T05:01:04;3.10;;;2.17;;
26963;SDS011;14521;48.148;-1.656;2023-06-24T05:04:27;3.42;;;2.30;;
26963;SDS011;14521;48.148;-1.656;2023-06-24T05:07:49;2.45;;;2.22;;
26963;SDS011;14521;48.148;-1.656;2023-06-24T05:11:11;2.08;;;1.95;;
26963;SDS011;14521;48.148;-1.656;2023-06-24T05:14:34;3.15;;;2.00;;
26963;SDS011;14521;48.148;-1.656;2023-06-24T05:17:57;2.72;;;2.50;;
26963;SDS011;14521;48.148;-1.656;2023-06-24T05:21:19;2.92;;;2.20;;
26963;SDS011;14521;48.148;-1.656;2023-06-24T05:24:42;2.88;;;2.63;;
26963;SDS011;14521;48.148;-1.656;2023-06-24T05:28:05;4.22;;;2.53;;
26963;SDS011;14521;48.148;-1.656;2023-06-24T05:31:27;2.63;;;2.40;;
26963;SDS011;14521;48.148;-1.656;2023-06-24T05:34:49;3.47;;;2.38;;
26963;SDS011;14521;48.148;-1.656;2023-06-24T05:38:12;3.75;;;1.90;;
26963;SDS011;14521;48.148;-1.656;2023-06-24T05:41:34;2.40;;;2.22;;
26963;SDS011;14521;48.148;-1.656;2023-06-24T05:44:57;2.20;;;2.10;;
26963;SDS011;14521;48.148;-1.656;2023-06-24T05:48:19;2.67;;;2.47;;
26963;SDS011;14521;48.148;-1.656;2023-06-24T05:51:41;3.28;;;2.47;;
26963;SDS011;14521;48.148;-1.656;2023-06-24T05:55:04;2.38;;;2.20;;
26963;SDS011;14521;48.148;-1.656;2023-06-24T05:58:26;3.25;;;2.45;;
26963;SDS011;14521;48.148;-1.656;2023-06-24T06:01:48;3.83;;;2.35;;
26963;SDS011;14521;48.148;-1.656;2023-06-24T06:05:11;2.47;;;2.28;;
26963;SDS011;14521;48.148;-1.656;2023-06-24T06:08:33;2.30;;;2.10;;
26963;SDS011;14521;48.148;-1.656;2023-06-24T06:11:56;3.42;;;2.78;;
26963;SDS011;14521;48.148;-1.656;2023-06-24T06:15:18;2.40;;;2.20;;
26963;SDS011;14521;48.148;-1.656;2023-06-24T06:18:41;4.45;;;2.03;;
26963;SDS011;14521;48.148;-1.656;2023-06-24T06:22:03;7.43;;;2.55;;
26963;SDS011;14521;48.148;-1.656;2023-06-24T06:25:26;2.72;;;2.53;;
26963;SDS011;14521;48.148;-1.656;2023-06-24T06:28:48;2.47;;;2.13;;
26963;SDS011;14521;48.148;-1.656;2023-06-24T06:32:11;3.58;;;2.15;;
26963;SDS011;14521;48.148;-1.656;2023-06-24T06:35:33;11.52;;;2.30;;
26963;SDS011;14521;48.148;-1.656;2023-06-24T06:38:56;2.45;;;2.25;;
26963;SDS011;14521;48.148;-1.656;2023-06-24T06:42:18;2.50;;;2.28;;
26963;SDS011;14521;48.148;-1.656;2023-06-24T06:45:40;2.63;;;2.50;;
26963;SDS011;14521;48.148;-1.656;2023-06-24T06:49:03;2.47;;;2.25;;
26963;SDS011;14521;48.148;-1.656;2023-06-24T06:52:25;8.98;;;2.38;;
26963;SDS011;14521;48.148;-1.656;2023-06-24T06:55:49;2.60;;;2.20;;
26963;SDS011;14521;48.148;-1.656;2023-06-24T06:59:11;3.22;;;2.55;;
26963;SDS011;14521;48.148;-1.656;2023-06-24T07:02:34;2.40;;;2.20;;
26963;SDS011;14521;48.148;-1.656;2023-06-24T07:05:56;2.30;;;2.10;;
26963;SDS011;14521;48.148;-1.656;2023-06-24T07:09:19;4.47;;;2.28;;
26963;SDS011;14521;48.148;-1.656;2023-06-24T07:12:41;3.08;;;2.10;;
26963;SDS011;14521;48.148;-1.656;2023-06-24T07:16:03;2.42;;;2.22;;
26963;SDS011;14521;48.148;-1.656;2023-06-24T07:19:26;3.00;;;2.17;;
26963;SDS011;14521;48.148;-1.656;2023-06-24T07:22:48;2.67;;;2.47;;
26963;SDS011;14521;48.148;-1.656;2023-06-24T07:26:10;2.42;;;2.22;;
26963;SDS011;14521;48.148;-1.656;2023-06-24T07:29:32;2.58;;;1.90;;
26963;SDS011;14521;48.148;-1.656;2023-06-24T07:32:55;3.03;;;2.72;;
26963;SDS011;14521;48.148;-1.656;2023-06-24T07:36:17;3.28;;;2.35;;
26963;SDS011;14521;48.148;-1.656;2023-06-24T07:39:40;3.15;;;2.72;;
26963;SDS011;14521;48.148;-1.656;2023-06-24T07:43:02;8.60;;;2.28;;
26963;SDS011;14521;48.148;-1.656;2023-06-24T07:46:24;3.15;;;2.45;;
26963;SDS011;14521;48.148;-1.656;2023-06-24T07:49:49;2.22;;;2.13;;
26963;SDS011;14521;48.148;-1.656;2023-06-24T07:53:11;3.28;;;2.20;;
26963;SDS011;14521;48.148;-1.656;2023-06-24T07:56:33;4.00;;;2.45;;
26963;SDS011;14521;48.148;-1.656;2023-06-24T07:59:56;3.00;;;2.53;;
26963;SDS011;14521;48.148;-1.656;2023-06-24T08:03:18;2.88;;;2.55;;
26963;SDS011;14521;48.148;-1.656;2023-06-24T08:06:41;2.75;;;2.55;;
26963;SDS011;14521;48.148;-1.656;2023-06-24T08:10:04;3.40;;;2.40;;
26963;SDS011;14521;48.148;-1.656;2023-06-24T08:13:26;2.50;;;2.20;;
26963;SDS011;14521;48.148;-1.656;2023-06-24T08:16:49;2.75;;;2.28;;
26963;SDS011;14521;48.148;-1.656;2023-06-24T08:20:11;3.30;;;2.40;;
26963;SDS011;14521;48.148;-1.656;2023-06-24T08:23:33;3.15;;;2.65;;
26963;SDS011;14521;48.148;-1.656;2023-06-24T08:26:56;3.05;;;2.28;;
26963;SDS011;14521;48.148;-1.656;2023-06-24T08:30:18;2.28;;;2.08;;
26963;SDS011;14521;48.148;-1.656;2023-06-24T08:33:43;3.17;;;2.20;;
26963;SDS011;14521;48.148;-1.656;2023-06-24T08:37:07;5.60;;;2.17;;
26963;SDS011;14521;48.148;-1.656;2023-06-24T08:40:29;2.47;;;2.20;;
26963;SDS011;14521;48.148;-1.656;2023-06-24T08:43:52;2.40;;;2.20;;
26963;SDS011;14521;48.148;-1.656;2023-06-24T08:47:17;2.45;;;2.30;;
26963;SDS011;14521;48.148;-1.656;2023-06-24T08:50:43;2.60;;;2.40;;
26963;SDS011;14521;48.148;-1.656;2023-06-24T08:54:09;3.85;;;2.40;;
26963;SDS011;14521;48.148;-1.656;2023-06-24T08:57:32;2.07;;;1.87;;
26963;SDS011;14521;48.148;-1.656;2023-06-24T09:00:54;3.25;;;2.50;;
26963;SDS011;14521;48.148;-1.656;2023-06-24T09:04:17;3.10;;;2.15;;
26963;SDS011;14521;48.148;-1.656;2023-06-24T09:07:39;4.82;;;1.88;;
26963;SDS011;14521;48.148;-1.656;2023-06-24T09:11:01;5.40;;;2.10;;
26963;SDS011;14521;48.148;-1.656;2023-06-24T09:14:25;2.00;;;1.90;;
26963;SDS011;14521;48.148;-1.656;2023-06-24T09:17:48;2.25;;;2.00;;
26963;SDS011;14521;48.148;-1.656;2023-06-24T09:21:10;1.90;;;1.80;;
26963;SDS011;14521;48.148;-1.656;2023-06-24T09:24:35;4.20;;;2.30;;
26963;SDS011;14521;48.148;-1.656;2023-06-24T09:27:59;3.17;;;2.00;;
26963;SDS011;14521;48.148;-1.656;2023-06-24T09:31:24;3.35;;;2.50;;
26963;SDS011;14521;48.148;-1.656;2023-06-24T09:34:47;2.20;;;2.10;;
26963;SDS011;14521;48.148;-1.656;2023-06-24T09:38:09;6.75;;;1.90;;
26963;SDS011;14521;48.148;-1.656;2023-06-24T09:41:32;4.00;;;1.75;;
26963;SDS011;14521;48.148;-1.656;2023-06-24T09:44:54;4.03;;;1.92;;
26963;SDS011;14521;48.148;-1.656;2023-06-24T09:48:18;2.00;;;1.77;;
26963;SDS011;14521;48.148;-1.656;2023-06-24T09:51:42;2.40;;;2.17;;
26963;SDS011;14521;48.148;-1.656;2023-06-24T09:55:06;1.88;;;1.77;;
26963;SDS011;14521;48.148;-1.656;2023-06-24T09:58:31;2.92;;;1.75;;
26963;SDS011;14521;48.148;-1.656;2023-06-24T10:01:56;5.72;;;1.80;;
26963;SDS011;14521;48.148;-1.656;2023-06-24T10:05:20;2.25;;;2.05;;
26963;SDS011;14521;48.148;-1.656;2023-06-24T10:08:42;2.22;;;2.03;;
26963;SDS011;14521;48.148;-1.656;2023-06-24T10:12:05;2.00;;;1.80;;
26963;SDS011;14521;48.148;-1.656;2023-06-24T10:15:27;1.60;;;1.50;;
26963;SDS011;14521;48.148;-1.656;2023-06-24T10:18:50;1.95;;;1.75;;
26963;SDS011;14521;48.148;-1.656;2023-06-24T10:22:12;3.10;;;1.30;;
26963;SDS011;14521;48.148;-1.656;2023-06-24T10:25:35;8.05;;;1.42;;
26963;SDS011;14521;48.148;-1.656;2023-06-24T10:32:27;6.30;;;2.08;;
26963;SDS011;14521;48.148;-1.656;2023-06-24T10:36:03;1.98;;;1.38;;
26963;SDS011;14521;48.148;-1.656;2023-06-24T10:39:35;1.60;;;1.50;;
26963;SDS011;14521;48.148;-1.656;2023-06-24T10:43:00;2.63;;;1.67;;
26963;SDS011;14521;48.148;-1.656;2023-06-24T10:46:22;1.77;;;1.67;;
26963;SDS011;14521;48.148;-1.656;2023-06-24T10:49:49;1.58;;;1.48;;
26963;SDS011;14521;48.148;-1.656;2023-06-24T10:53:12;17.85;;;7.35;;
26963;SDS011;14521;48.148;-1.656;2023-06-24T10:56:35;151.30;;;43.67;;
26963;SDS011;14521;48.148;-1.656;2023-06-24T10:59:59;79.90;;;23.63;;
26963;SDS011;14521;48.148;-1.656;2023-06-24T11:03:22;105.07;;;30.65;;
26963;SDS011;14521;48.148;-1.656;2023-06-24T11:06:57;63.72;;;20.08;;
26963;SDS011;14521;48.148;-1.656;2023-06-24T11:10:20;69.95;;;20.23;;
26963;SDS011;14521;48.148;-1.656;2023-06-24T11:13:43;83.63;;;19.23;;
26963;SDS011;14521;48.148;-1.656;2023-06-24T11:17:05;54.08;;;16.10;;
26963;SDS011;14521;48.148;-1.656;2023-06-24T11:20:27;42.72;;;14.27;;
26963;SDS011;14521;48.148;-1.656;2023-06-24T11:23:50;47.28;;;13.80;;
26963;SDS011;14521;48.148;-1.656;2023-06-24T11:27:12;33.95;;;11.23;;
26963;SDS011;14521;48.148;-1.656;2023-06-24T11:30:35;28.42;;;8.95;;
26963;SDS011;14521;48.148;-1.656;2023-06-24T11:33:57;20.27;;;8.27;;
26963;SDS011;14521;48.148;-1.656;2023-06-24T11:37:20;18.23;;;6.93;;
26963;SDS011;14521;48.148;-1.656;2023-06-24T11:40:52;20.50;;;6.20;;
26963;SDS011;14521;48.148;-1.656;2023-06-24T11:44:14;14.13;;;4.25;;
26963;SDS011;14521;48.148;-1.656;2023-06-24T11:47:39;11.23;;;3.83;;
26963;SDS011;14521;48.148;-1.656;2023-06-24T11:51:01;9.75;;;3.20;;
26963;SDS011;14521;48.148;-1.656;2023-06-24T11:54:24;3.55;;;2.80;;
26963;SDS011;14521;48.148;-1.656;2023-06-24T11:57:49;3.50;;;3.20;;
26963;SDS011;14521;48.148;-1.656;2023-06-24T12:01:13;7.20;;;2.50;;
26963;SDS011;14521;48.148;-1.656;2023-06-24T12:04:35;4.68;;;2.15;;
26963;SDS011;14521;48.148;-1.656;2023-06-24T12:11:21;2.03;;;1.83;;
26963;SDS011;14521;48.148;-1.656;2023-06-24T12:14:43;2.58;;;2.20;;
26963;SDS011;14521;48.148;-1.656;2023-06-24T12:18:06;1.95;;;1.80;;
26963;SDS011;14521;48.148;-1.656;2023-06-24T12:21:28;4.05;;;1.95;;
26963;SDS011;14521;48.148;-1.656;2023-06-24T12:24:50;2.03;;;1.63;;
26963;SDS011;14521;48.148;-1.656;2023-06-24T12:28:12;3.72;;;1.67;;
26963;SDS011;14521;48.148;-1.656;2023-06-24T12:31:35;2.97;;;1.80;;
26963;SDS011;14521;48.148;-1.656;2023-06-24T12:34:57;1.95;;;1.85;;
26963;SDS011;14521;48.148;-1.656;2023-06-24T12:38:19;2.05;;;1.85;;
26963;SDS011;14521;48.148;-1.656;2023-06-24T12:41:41;2.88;;;1.80;;
26963;SDS011;14521;48.148;-1.656;2023-06-24T12:45:04;1.88;;;1.77;;
26963;SDS011;14521;48.148;-1.656;2023-06-24T12:48:26;2.10;;;2.00;;
26963;SDS011;14521;48.148;-1.656;2023-06-24T12:51:49;2.17;;;2.03;;
26963;SDS011;14521;48.148;-1.656;2023-06-24T12:55:11;2.17;;;1.98;;
26963;SDS011;14521;48.148;-1.656;2023-06-24T12:58:37;1.85;;;1.75;;
26963;SDS011;14521;48.148;-1.656;2023-06-24T13:01:59;1.98;;;1.80;;
26963;SDS011;14521;48.148;-1.656;2023-06-24T13:05:22;1.65;;;1.55;;
26963;SDS011;14521;48.148;-1.656;2023-06-24T13:08:45;1.80;;;1.70;;
26963;SDS011;14521;48.148;-1.656;2023-06-24T13:12:07;2.03;;;1.67;;
26963;SDS011;14521;48.148;-1.656;2023-06-24T13:15:30;2.05;;;1.95;;
26963;SDS011;14521;48.148;-1.656;2023-06-24T13:18:53;2.03;;;1.67;;
26963;SDS011;14521;48.148;-1.656;2023-06-24T13:22:15;2.55;;;2.28;;
26963;SDS011;14521;48.148;-1.656;2023-06-24T13:25:38;2.40;;;1.80;;
26963;SDS011;14521;48.148;-1.656;2023-06-24T13:29:00;2.17;;;1.98;;
26963;SDS011;14521;48.148;-1.656;2023-06-24T13:32:24;2.13;;;1.70;;
26963;SDS011;14521;48.148;-1.656;2023-06-24T13:35:46;1.95;;;1.80;;
26963;SDS011;14521;48.148;-1.656;2023-06-24T13:39:11;2.15;;;1.73;;
26963;SDS011;14521;48.148;-1.656;2023-06-24T13:42:34;4.90;;;1.60;;
26963;SDS011;14521;48.148;-1.656;2023-06-24T13:45:56;1.67;;;1.58;;
26963;SDS011;14521;48.148;-1.656;2023-06-24T13:49:18;2.00;;;1.90;;
26963;SDS011;14521;48.148;-1.656;2023-06-24T13:52:41;2.10;;;2.00;;
26963;SDS011;14521;48.148;-1.656;2023-06-24T13:56:03;2.28;;;2.08;;
26963;SDS011;14521;48.148;-1.656;2023-06-24T13:59:25;1.83;;;1.73;;
26963;SDS011;14521;48.148;-1.656;2023-06-24T14:02:48;2.03;;;1.92;;
26963;SDS011;14521;48.148;-1.656;2023-06-24T14:06:10;2.00;;;1.90;;
26963;SDS011;14521;48.148;-1.656;2023-06-24T14:09:33;1.92;;;1.83;;
26963;SDS011;14521;48.148;-1.656;2023-06-24T14:12:56;4.38;;;1.60;;
26963;SDS011;14521;48.148;-1.656;2023-06-24T14:16:18;1.73;;;1.63;;
26963;SDS011;14521;48.148;-1.656;2023-06-24T14:19:40;3.95;;;1.80;;
26963;SDS011;14521;48.148;-1.656;2023-06-24T14:23:03;1.80;;;1.70;;
26963;SDS011;14521;48.148;-1.656;2023-06-24T14:26:26;2.20;;;2.00;;
26963;SDS011;14521;48.148;-1.656;2023-06-24T14:29:49;1.92;;;1.80;;
26963;SDS011;14521;48.148;-1.656;2023-06-24T14:33:12;4.38;;;2.10;;
26963;SDS011;14521;48.148;-1.656;2023-06-24T14:36:35;2.10;;;1.90;;
26963;SDS011;14521;48.148;-1.656;2023-06-24T14:39:57;1.70;;;1.60;;
26963;SDS011;14521;48.148;-1.656;2023-06-24T14:43:19;1.92;;;1.75;;
26963;SDS011;14521;48.148;-1.656;2023-06-24T14:46:42;2.88;;;1.80;;
26963;SDS011;14521;48.148;-1.656;2023-06-24T14:50:04;2.15;;;1.65;;
26963;SDS011;14521;48.148;-1.656;2023-06-24T14:53:27;2.53;;;1.65;;
26963;SDS011;14521;48.148;-1.656;2023-06-24T14:56:49;2.80;;;2.47;;
26963;SDS011;14521;48.148;-1.656;2023-06-24T15:00:11;1.80;;;1.70;;
26963;SDS011;14521;48.148;-1.656;2023-06-24T15:03:34;1.73;;;1.63;;
26963;SDS011;14521;48.148;-1.656;2023-06-24T15:06:56;2.42;;;1.45;;
26963;SDS011;14521;48.148;-1.656;2023-06-24T15:10:19;2.42;;;1.45;;
26963;SDS011;14521;48.148;-1.656;2023-06-24T15:13:41;1.75;;;1.65;;
26963;SDS011;14521;48.148;-1.656;2023-06-24T15:17:03;1.83;;;1.58;;
26963;SDS011;14521;48.148;-1.656;2023-06-24T15:20:26;3.00;;;2.08;;
26963;SDS011;14521;48.148;-1.656;2023-06-24T15:23:48;2.10;;;2.00;;
26963;SDS011;14521;48.148;-1.656;2023-06-24T15:27:10;3.40;;;2.20;;
26963;SDS011;14521;48.148;-1.656;2023-06-24T15:30:32;4.07;;;1.98;;
26963;SDS011;14521;48.148;-1.656;2023-06-24T15:33:55;1.85;;;1.75;;
26963;SDS011;14521;48.148;-1.656;2023-06-24T15:37:18;1.85;;;1.60;;
26963;SDS011;14521;48.148;-1.656;2023-06-24T15:40:40;1.90;;;1.80;;
26963;SDS011;14521;48.148;-1.656;2023-06-24T15:44:06;2.78;;;1.70;;
26963;SDS011;14521;48.148;-1.656;2023-06-24T15:47:28;1.90;;;1.80;;
26963;SDS011;14521;48.148;-1.656;2023-06-24T15:50:50;1.77;;;1.67;;
26963;SDS011;14521;48.148;-1.656;2023-06-24T15:54:13;2.85;;;1.77;;
26963;SDS011;14521;48.148;-1.656;2023-06-24T15:57:35;2.33;;;1.98;;
26963;SDS011;14521;48.148;-1.656;2023-06-24T16:00:57;2.22;;;2.03;;
26963;SDS011;14521;48.148;-1.656;2023-06-24T16:04:19;3.13;;;2.00;;
26963;SDS011;14521;48.148;-1.656;2023-06-24T16:07:42;1.90;;;1.80;;
26963;SDS011;14521;48.148;-1.656;2023-06-24T16:11:04;2.00;;;1.90;;
26963;SDS011;14521;48.148;-1.656;2023-06-24T16:14:27;1.90;;;1.70;;
26963;SDS011;14521;48.148;-1.656;2023-06-24T16:17:49;2.13;;;1.92;;
26963;SDS011;14521;48.148;-1.656;2023-06-24T16:21:11;3.05;;;1.98;;
26963;SDS011;14521;48.148;-1.656;2023-06-24T16:24:34;1.85;;;1.75;;
26963;SDS011;14521;48.148;-1.656;2023-06-24T16:27:56;2.33;;;2.13;;
26963;SDS011;14521;48.148;-1.656;2023-06-24T16:31:18;3.42;;;1.90;;
26963;SDS011;14521;48.148;-1.656;2023-06-24T16:34:41;1.70;;;1.60;;
26963;SDS011;14521;48.148;-1.656;2023-06-24T16:38:03;2.15;;;2.05;;
26963;SDS011;14521;48.148;-1.656;2023-06-24T16:41:25;1.90;;;1.80;;
26963;SDS011;14521;48.148;-1.656;2023-06-24T16:44:47;2.10;;;1.92;;
26963;SDS011;14521;48.148;-1.656;2023-06-24T16:48:10;3.15;;;2.25;;
26963;SDS011;14521;48.148;-1.656;2023-06-24T16:51:35;2.42;;;1.90;;
26963;SDS011;14521;48.148;-1.656;2023-06-24T16:54:58;2.38;;;2.13;;
26963;SDS011;14521;48.148;-1.656;2023-06-24T16:58:21;1.98;;;1.88;;
26963;SDS011;14521;48.148;-1.656;2023-06-24T17:01:43;5.75;;;2.40;;
26963;SDS011;14521;48.148;-1.656;2023-06-24T17:05:05;4.93;;;2.30;;
26963;SDS011;14521;48.148;-1.656;2023-06-24T17:08:28;2.88;;;2.20;;
26963;SDS011;14521;48.148;-1.656;2023-06-24T17:11:50;5.97;;;2.20;;
26963;SDS011;14521;48.148;-1.656;2023-06-24T17:15:12;2.42;;;2.22;;
26963;SDS011;14521;48.148;-1.656;2023-06-24T17:18:35;2.75;;;2.55;;
26963;SDS011;14521;48.148;-1.656;2023-06-24T17:21:57;2.85;;;2.45;;
26963;SDS011;14521;48.148;-1.656;2023-06-24T17:25:19;3.45;;;2.40;;
26963;SDS011;14521;48.148;-1.656;2023-06-24T17:28:42;4.20;;;2.42;;
26963;SDS011;14521;48.148;-1.656;2023-06-24T17:32:05;2.63;;;2.42;;
26963;SDS011;14521;48.148;-1.656;2023-06-24T17:35:28;2.80;;;2.47;;
26963;SDS011;14521;48.148;-1.656;2023-06-24T17:38:50;2.67;;;1.98;;
26963;SDS011;14521;48.148;-1.656;2023-06-24T17:42:12;4.50;;;2.58;;
26963;SDS011;14521;48.148;-1.656;2023-06-24T17:45:35;2.50;;;2.30;;
26963;SDS011;14521;48.148;-1.656;2023-06-24T17:48:57;2.33;;;2.22;;
26963;SDS011;14521;48.148;-1.656;2023-06-24T17:52:19;2.13;;;2.03;;
26963;SDS011;14521;48.148;-1.656;2023-06-24T17:55:41;2.40;;;2.17;;
26963;SDS011;14521;48.148;-1.656;2023-06-24T17:59:05;2.63;;;2.42;;
26963;SDS011;14521;48.148;-1.656;2023-06-24T18:02:29;4.25;;;3.63;;
26963;SDS011;14521;48.148;-1.656;2023-06-24T18:05:51;4.80;;;3.88;;
26963;SDS011;14521;48.148;-1.656;2023-06-24T18:09:14;5.35;;;3.50;;
26963;SDS011;14521;48.148;-1.656;2023-06-24T18:12:38;3.90;;;3.50;;
26963;SDS011;14521;48.148;-1.656;2023-06-24T18:16:02;5.43;;;3.30;;
26963;SDS011;14521;48.148;-1.656;2023-06-24T18:19:25;7.15;;;2.72;;
26963;SDS011;14521;48.148;-1.656;2023-06-24T18:22:47;5.53;;;2.17;;
26963;SDS011;14521;48.148;-1.656;2023-06-24T18:26:09;3.35;;;2.67;;
26963;SDS011;14521;48.148;-1.656;2023-06-24T18:29:34;2.42;;;2.22;;
26963;SDS011;14521;48.148;-1.656;2023-06-24T18:32:57;3.17;;;2.28;;
26963;SDS011;14521;48.148;-1.656;2023-06-24T18:36:20;4.45;;;2.40;;
26963;SDS011;14521;48.148;-1.656;2023-06-24T18:39:42;8.00;;;2.33;;
26963;SDS011;14521;48.148;-1.656;2023-06-24T18:43:06;3.25;;;2.10;;
26963;SDS011;14521;48.148;-1.656;2023-06-24T18:46:28;4.03;;;2.50;;
26963;SDS011;14521;48.148;-1.656;2023-06-24T18:49:51;3.85;;;2.10;;
26963;SDS011;14521;48.148;-1.656;2023-06-24T18:53:13;2.92;;;2.40;;
26963;SDS011;14521;48.148;-1.656;2023-06-24T18:56:35;2.20;;;2.00;;
26963;SDS011;14521;48.148;-1.656;2023-06-24T18:59:57;2.00;;;1.73;;
26963;SDS011;14521;48.148;-1.656;2023-06-24T19:03:19;5.22;;;2.60;;
26963;SDS011;14521;48.148;-1.656;2023-06-24T19:06:42;2.17;;;1.98;;
26963;SDS011;14521;48.148;-1.656;2023-06-24T19:10:04;2.05;;;1.95;;
26963;SDS011;14521;48.148;-1.656;2023-06-24T19:13:27;2.10;;;2.00;;
26963;SDS011;14521;48.148;-1.656;2023-06-24T19:16:49;6.28;;;1.95;;
26963;SDS011;14521;48.148;-1.656;2023-06-24T19:20:12;2.13;;;1.92;;
26963;SDS011;14521;48.148;-1.656;2023-06-24T19:23:34;2.17;;;1.98;;
26963;SDS011;14521;48.148;-1.656;2023-06-24T19:26:57;2.25;;;1.98;;
26963;SDS011;14521;48.148;-1.656;2023-06-24T19:30:19;2.47;;;2.28;;
26963;SDS011;14521;48.148;-1.656;2023-06-24T19:33:41;2.85;;;2.03;;
26963;SDS011;14521;48.148;-1.656;2023-06-24T19:37:04;3.60;;;1.90;;
26963;SDS011;14521;48.148;-1.656;2023-06-24T19:40:26;3.47;;;2.25;;
26963;SDS011;14521;48.148;-1.656;2023-06-24T19:43:48;2.00;;;1.90;;
26963;SDS011;14521;48.148;-1.656;2023-06-24T19:47:11;2.75;;;2.55;;
26963;SDS011;14521;48.148;-1.656;2023-06-24T19:50:33;5.03;;;3.05;;
26963;SDS011;14521;48.148;-1.656;2023-06-24T19:53:56;5.88;;;2.53;;
26963;SDS011;14521;48.148;-1.656;2023-06-24T19:57:19;3.53;;;2.50;;
26963;SDS011;14521;48.148;-1.656;2023-06-24T20:00:41;2.80;;;2.30;;
26963;SDS011;14521;48.148;-1.656;2023-06-24T20:04:04;3.97;;;2.83;;
26963;SDS011;14521;48.148;-1.656;2023-06-24T20:07:26;2.55;;;2.35;;
26963;SDS011;14521;48.148;-1.656;2023-06-24T20:10:49;2.33;;;2.22;;
26963;SDS011;14521;48.148;-1.656;2023-06-24T20:14:11;2.13;;;2.03;;
26963;SDS011;14521;48.148;-1.656;2023-06-24T20:17:33;2.38;;;2.20;;